Time;durP1;ratioP1;P1;durP2;ratioP2;P2;SDS_P1;SDS_P2;PMS_P1;PMS_P2;Temp;Humidity;BMP_temperature;BMP_pressure;BME280_temperature;BME280_humidity;BME280_pressure;Samples;Min_cycle;Max_cycle;Signal;HPM_P1;HPM_P2
2023/03/23 00:02:00;;;;;;;3.50;1.70;;;;;;;13.19;60.89;97529.94;5031038;28;20231;-78
2023/03/23 00:04:26;;;;;;;1.73;1.37;;;;;;;13.18;61.05;97528.28;5030951;28;20209;-77
2023/03/23 00:06:53;;;;;;;1.97;1.50;;;;;;;13.15;61.27;97534.69;5031054;28;20203;-79
2023/03/23 00:09:23;;;;;;;1.93;1.40;;;;;;;13.14;61.68;97532.19;5030606;28;20221;-79
2023/03/23 00:12:04;;;;;;;2.10;1.63;;;;;;;13.18;60.66;97522.97;5030615;28;20235;-79
2023/03/23 00:14:40;;;;;;;1.40;1.30;;;;;;;13.17;60.70;97524.81;5030848;28;20215;-78
2023/03/23 00:17:09;;;;;;;1.63;1.40;;;;;;;13.25;59.98;97516.13;5030695;28;20325;-77
2023/03/23 00:19:45;;;;;;;3.27;1.53;;;;;;;13.28;61.15;97529.16;5030490;28;20282;-77
2023/03/23 00:22:14;;;;;;;1.47;1.30;;;;;;;13.35;61.30;97525.81;5030809;28;20269;-78
2023/03/23 00:24:40;;;;;;;1.67;1.00;;;;;;;13.33;60.33;97521.63;5030637;28;20699;-77
2023/03/23 00:27:12;;;;;;;1.37;1.10;;;;;;;13.40;60.39;97501.50;5030842;28;20669;-77
2023/03/23 00:29:39;;;;;;;1.50;1.23;;;;;;;13.40;60.45;97512.13;5030518;28;20218;-77
2023/03/23 00:32:06;;;;;;;1.30;1.20;;;;;;;13.42;60.70;97515.47;5030439;28;20242;-77
2023/03/23 00:34:33;;;;;;;2.70;1.07;;;;;;;13.42;60.74;97505.69;5030465;28;20296;-78
2023/03/23 00:37:00;;;;;;;1.83;1.10;;;;;;;13.46;60.78;97503.59;5034617;28;20255;-77
2023/03/23 00:39:28;;;;;;;2.60;1.43;;;;;;;13.44;60.93;97503.75;5034584;28;20211;-78
2023/03/23 00:42:00;;;;;;;1.17;1.03;;;;;;;13.47;60.32;97492.00;5034601;28;20583;-79
2023/03/23 00:44:28;;;;;;;1.30;1.00;;;;;;;13.50;60.44;97491.75;5034622;28;20221;-79
2023/03/23 00:46:56;;;;;;;1.30;1.00;;;;;;;13.47;60.69;97481.38;5034362;28;20205;-79
2023/03/23 00:49:24;;;;;;;2.20;1.43;;;;;;;13.43;60.89;97495.91;5034388;28;20214;-79
2023/03/23 00:51:52;;;;;;;1.23;1.10;;;;;;;13.48;60.76;97488.38;5034539;28;20312;-79
2023/03/23 00:54:19;;;;;;;1.83;1.30;;;;;;;13.44;60.84;97482.50;5034386;28;20313;-77
2023/03/23 00:56:46;;;;;;;1.10;1.00;;;;;;;13.42;60.87;97488.91;5034117;28;20228;-79
2023/03/23 00:59:12;;;;;;;1.20;1.10;;;;;;;13.43;60.39;97480.84;5033926;28;20217;-77
2023/03/23 01:01:40;;;;;;;2.17;1.20;;;;;;;13.43;61.04;97474.66;5034179;28;20234;-77
2023/03/23 01:04:07;;;;;;;1.40;1.30;;;;;;;13.48;60.39;97467.13;5034423;28;20310;-79
2023/03/23 01:06:38;;;;;;;2.10;1.33;;;;;;;13.53;60.04;97459.59;5034133;28;20207;-78
2023/03/23 01:09:06;;;;;;;1.63;1.20;;;;;;;13.49;59.98;97463.50;5034079;28;20216;-76
2023/03/23 01:11:33;;;;;;;1.43;1.27;;;;;;;13.50;59.91;97465.19;5033799;28;20229;-78
2023/03/23 01:14:01;;;;;;;1.73;1.10;;;;;;;13.46;60.38;97469.09;5033951;28;20211;-79
2023/03/23 01:16:28;;;;;;;2.07;1.60;;;;;;;13.50;60.39;97465.19;5033621;28;20594;-77
2023/03/23 01:18:56;;;;;;;1.63;1.53;;;;;;;13.38;60.57;97476.94;5033985;28;20236;-79
2023/03/23 01:21:24;;;;;;;1.93;1.40;;;;;;;13.42;60.88;97462.38;5033689;28;20249;-78
2023/03/23 01:23:51;;;;;;;1.67;1.57;;;;;;;13.38;61.12;97461.00;5033930;28;20208;-79
2023/03/23 01:26:20;;;;;;;2.07;1.70;;;;;;;13.29;61.29;97461.81;5033678;28;20218;-79
2023/03/23 01:28:47;;;;;;;3.37;2.17;;;;;;;13.27;61.29;97463.78;5033644;28;20211;-78
2023/03/23 01:31:15;;;;;;;2.73;2.17;;;;;;;13.17;61.60;97460.28;5033161;28;20238;-78
2023/03/23 01:33:43;;;;;;;3.17;2.20;;;;;;;13.15;61.86;97467.53;5033772;28;20320;-77
2023/03/23 01:36:14;;;;;;;2.37;2.10;;;;;;;13.08;61.76;97463.78;5033534;28;20218;-77
2023/03/23 01:38:42;;;;;;;2.90;2.10;;;;;;;13.12;61.92;97460.69;5033668;28;20218;-77
2023/03/23 01:41:10;;;;;;;3.20;1.80;;;;;;;13.15;61.17;97451.63;5032945;28;20231;-78
2023/03/23 01:43:37;;;;;;;3.30;1.70;;;;;;;13.13;60.75;97442.94;5033327;28;20206;-77
2023/03/23 01:46:04;;;;;;;1.87;1.60;;;;;;;13.07;61.43;97448.84;5033487;28;20210;-78
2023/03/23 01:48:33;;;;;;;3.17;2.00;;;;;;;13.01;61.70;97452.84;5032569;28;20247;-77
2023/03/23 01:51:05;;;;;;;2.23;1.83;;;;;;;12.98;62.66;97453.13;5032952;28;20230;-77
2023/03/23 01:53:38;;;;;;;2.87;1.90;;;;;;;13.00;62.22;97445.03;5033235;28;20217;-79
2023/03/23 01:56:07;;;;;;;1.83;1.67;;;;;;;12.93;62.59;97454.47;5033183;28;20230;-79
2023/03/23 01:58:36;;;;;;;2.40;1.50;;;;;;;12.87;63.35;97453.22;5033109;28;20211;-77
2023/03/23 02:01:06;;;;;;;2.43;1.70;;;;;;;12.83;63.32;97456.28;5031784;28;20246;-78
2023/03/23 02:03:34;;;;;;;2.07;1.50;;;;;;;12.81;63.15;97455.56;5031184;28;20212;-78
2023/03/23 02:06:00;;;;;;;1.40;1.30;;;;;;;12.83;62.90;97449.16;5033004;28;20221;-78
2023/03/23 02:08:28;;;;;;;1.70;1.60;;;;;;;12.82;62.52;97441.31;5032778;28;20210;-78
2023/03/23 02:10:56;;;;;;;2.43;1.40;;;;;;;12.95;61.21;97431.34;5032819;28;20303;-77
2023/03/23 02:13:23;;;;;;;1.37;1.07;;;;;;;12.89;61.18;97421.28;5032968;28;20217;-77
2023/03/23 02:16:03;;;;;;;1.43;1.23;;;;;;;12.85;61.00;97427.81;5032999;28;20217;-79
2023/03/23 02:18:46;;;;;;;1.53;1.30;;;;;;;12.85;61.34;97430.47;5032741;28;20327;-79
2023/03/23 02:22:04;;;;;;;2.93;1.50;;;;;;;12.86;61.09;97426.84;5032583;28;20240;-78
2023/03/23 02:25:19;;;;;;;2.90;1.60;;;;;;;12.83;60.76;97419.16;5032568;28;20662;-78
2023/03/23 02:28:26;;;;;;;2.60;1.50;;;;;;;12.76;61.65;97425.97;4971452;28;20672;-77
2023/03/23 02:31:19;;;;;;;2.13;1.73;;;;;;;12.78;62.12;97422.19;4971140;28;20244;-78
2023/03/23 02:33:50;;;;;;;2.30;1.80;;;;;;;12.77;61.90;97433.78;5032272;28;20208;-78
2023/03/23 02:36:25;;;;;;;2.03;1.60;;;;;;;12.79;61.92;97420.41;5032411;28;20685;-78
2023/03/23 02:38:58;;;;;;;3.33;1.67;;;;;;;12.76;61.89;97400.31;5032371;28;20209;-77
2023/03/23 02:41:30;;;;;;;2.20;1.37;;;;;;;12.83;60.54;97388.16;5031938;28;20318;-78
2023/03/23 02:43:58;;;;;;;1.53;1.37;;;;;;;12.75;61.27;97389.81;5032156;28;20214;-78
2023/03/23 02:46:28;;;;;;;2.73;1.40;;;;;;;12.68;61.55;97386.03;5032418;28;20212;-78
2023/03/23 02:48:58;;;;;;;2.70;1.70;;;;;;;12.61;61.68;97395.53;5032031;28;20210;-78
2023/03/23 02:51:26;;;;;;;2.47;1.60;;;;;;;12.51;61.99;97392.00;5031916;28;20753;-78
2023/03/23 02:53:56;;;;;;;1.80;1.50;;;;;;;12.43;62.59;97391.84;5032193;28;20237;-78
2023/03/23 02:56:25;;;;;;;1.90;1.70;;;;;;;12.35;62.87;97394.34;5032085;28;20205;-78
2023/03/23 02:58:52;;;;;;;2.20;1.70;;;;;;;12.28;63.64;97385.25;5031214;28;20654;-78
2023/03/23 03:01:52;;;;;;;3.23;1.70;;;;;;;12.32;63.17;97384.00;5031692;28;20230;-78
2023/03/23 03:04:25;;;;;;;2.60;1.90;;;;;;;12.31;63.40;97388.47;5031934;28;20219;-78
2023/03/23 03:07:03;;;;;;;4.53;2.73;;;;;;;12.33;63.56;97388.31;5031802;28;20245;-78
2023/03/23 03:09:37;;;;;;;3.67;2.60;;;;;;;12.35;63.67;97386.41;5031832;28;20213;-77
2023/03/23 03:12:09;;;;;;;3.07;2.50;;;;;;;12.36;64.36;97390.72;5031957;28;20237;-77
2023/03/23 03:14:39;;;;;;;2.97;2.67;;;;;;;12.36;64.89;97390.72;5031799;28;20209;-78
2023/03/23 03:17:14;;;;;;;3.87;2.30;;;;;;;12.40;64.72;97389.50;5031560;28;20233;-78
2023/03/23 03:19:46;;;;;;;2.93;2.00;;;;;;;12.39;65.02;97387.78;5031684;28;20213;-78
2023/03/23 03:22:14;;;;;;;2.97;2.33;;;;;;;12.41;65.30;97388.50;5031836;28;20210;-78
2023/03/23 03:24:43;;;;;;;3.33;2.20;;;;;;;12.42;65.34;97388.34;5031724;28;20231;-78
2023/03/23 03:27:16;;;;;;;4.17;2.63;;;;;;;12.46;65.57;97392.41;5031525;28;20210;-78
2023/03/23 03:29:47;;;;;;;3.70;2.20;;;;;;;12.46;65.39;97399.53;5031098;28;20304;-77
2023/03/23 03:32:18;;;;;;;2.60;2.00;;;;;;;12.46;65.64;97402.19;5031408;28;20570;-78
2023/03/23 03:34:47;;;;;;;3.23;2.13;;;;;;;12.51;65.51;97389.34;5031433;28;20249;-78
2023/03/23 03:37:15;;;;;;;3.10;1.97;;;;;;;12.52;64.85;97394.53;5031204;28;20233;-78
2023/03/23 03:39:41;;;;;;;2.37;1.90;;;;;;;12.56;64.78;97388.00;5031105;28;20216;-78
2023/03/23 03:42:08;;;;;;;2.73;2.00;;;;;;;12.55;65.03;97390.75;5031017;28;20233;-78
2023/03/23 03:44:34;;;;;;;2.40;1.90;;;;;;;12.55;64.95;97396.06;5031053;28;20255;-78
2023/03/23 03:47:01;;;;;;;2.70;1.80;;;;;;;12.60;64.25;97383.25;5031067;28;20215;-78
2023/03/23 03:49:28;;;;;;;2.27;2.00;;;;;;;12.56;65.00;97388.00;5030770;28;20677;-78
2023/03/23 03:51:56;;;;;;;2.00;1.70;;;;;;;12.56;64.99;97385.34;5030964;28;20224;-78
2023/03/23 03:54:22;;;;;;;3.33;2.00;;;;;;;12.60;65.12;97383.25;5031066;28;20206;-78
2023/03/23 03:56:51;;;;;;;3.00;1.80;;;;;;;12.59;64.55;97381.59;5030802;28;20213;-78
2023/03/23 03:59:18;;;;;;;2.57;1.90;;;;;;;12.58;64.86;97374.56;5030944;28;20543;-78
2023/03/23 04:01:44;;;;;;;2.63;1.90;;;;;;;12.60;64.85;97377.94;5031047;28;20318;-78
2023/03/23 04:04:11;;;;;;;2.27;1.83;;;;;;;12.59;64.71;97376.28;5031221;28;20208;-78
2023/03/23 04:06:37;;;;;;;1.93;1.80;;;;;;;12.55;64.67;97375.72;5031060;28;20213;-78
2023/03/23 04:09:07;;;;;;;3.83;1.90;;;;;;;12.57;64.72;97376.41;5030829;28;20588;-78
2023/03/23 04:11:34;;;;;;;2.90;1.50;;;;;;;12.56;64.79;97382.69;5030704;28;20264;-78
2023/03/23 04:14:00;;;;;;;2.47;1.70;;;;;;;12.57;65.27;97387.00;5030985;28;20301;-78
2023/03/23 04:16:29;;;;;;;2.80;1.80;;;;;;;12.58;65.27;97377.22;5031008;28;20213;-78
2023/03/23 04:18:57;;;;;;;1.60;1.47;;;;;;;12.58;65.46;97377.22;5030897;28;20597;-78
2023/03/23 04:21:28;;;;;;;2.00;1.80;;;;;;;12.55;65.52;97386.31;5030445;28;20261;-78
2023/03/23 04:23:55;;;;;;;2.17;1.63;;;;;;;12.59;64.81;97394.84;5030706;28;20297;-78
2023/03/23 04:26:23;;;;;;;2.70;1.70;;;;;;;12.58;65.06;97393.97;5030764;28;20375;-78
2023/03/23 04:28:50;;;;;;;2.43;1.70;;;;;;;12.56;65.79;97395.09;5030957;28;20210;-78
2023/03/23 04:31:16;;;;;;;4.57;1.90;;;;;;;12.57;66.56;97400.25;5030359;28;20663;-78
2023/03/23 04:33:43;;;;;;;2.63;1.70;;;;;;;12.56;67.28;97403.03;5030667;28;20210;-78
2023/03/23 04:36:09;;;;;;;2.23;1.60;;;;;;;12.53;67.98;97398.03;5030486;28;20212;-77
2023/03/23 04:38:36;;;;;;;1.80;1.50;;;;;;;12.53;68.03;97398.03;5030933;28;20225;-77
2023/03/23 04:41:03;;;;;;;2.87;1.60;;;;;;;12.53;68.05;97401.50;5030346;28;20257;-77
2023/03/23 04:43:32;;;;;;;3.47;1.67;;;;;;;12.56;66.93;97387.13;5030451;28;20637;-78
2023/03/23 04:46:02;;;;;;;1.50;1.40;;;;;;;12.55;67.13;97388.13;5030586;28;20245;-77
2023/03/23 04:48:32;;;;;;;1.53;1.43;;;;;;;12.55;67.67;97385.47;5030613;28;20695;-78
2023/03/23 04:51:00;;;;;;;2.67;1.60;;;;;;;12.53;67.61;97392.72;5030315;28;20294;-78
2023/03/23 04:53:27;;;;;;;2.70;1.60;;;;;;;12.49;67.35;97384.22;5030611;28;20583;-78
2023/03/23 04:55:53;;;;;;;2.37;1.60;;;;;;;12.50;66.39;97388.53;5030507;28;20219;-78
2023/03/23 04:58:20;;;;;;;2.83;1.87;;;;;;;12.50;66.84;97401.78;5030247;28;20323;-78
2023/03/23 05:00:49;;;;;;;2.93;1.80;;;;;;;12.54;66.30;97389.91;5030207;28;20614;-78
2023/03/23 05:03:16;;;;;;;4.50;2.30;;;;;;;12.54;66.28;97391.75;5030411;28;20205;-78
2023/03/23 05:05:46;;;;;;;2.60;1.80;;;;;;;12.55;66.92;97391.63;5030639;28;20303;-78
2023/03/23 05:08:13;;;;;;;3.63;2.57;;;;;;;12.59;66.40;97386.88;5030551;28;20624;-78
2023/03/23 05:10:40;;;;;;;2.83;1.90;;;;;;;12.58;66.72;97380.72;5029887;28;20742;-78
2023/03/23 05:13:06;;;;;;;2.50;1.80;;;;;;;12.58;66.27;97385.19;5030377;28;20222;-78
2023/03/23 05:15:33;;;;;;;3.43;1.93;;;;;;;12.63;66.07;97382.97;5030188;28;20216;-78
2023/03/23 05:18:00;;;;;;;3.20;2.40;;;;;;;12.62;66.15;97387.44;5030164;28;20236;-78
2023/03/23 05:20:27;;;;;;;2.93;1.93;;;;;;;12.65;65.97;97381.03;5030075;28;20591;-78
2023/03/23 05:22:56;;;;;;;3.97;2.10;;;;;;;12.67;66.32;97379.94;5032050;28;20220;-78
2023/03/23 05:25:22;;;;;;;3.83;2.20;;;;;;;12.70;65.72;97389.38;5033912;28;20214;-78
2023/03/23 05:27:52;;;;;;;4.37;2.40;;;;;;;12.69;65.81;97377.97;5033764;28;20293;-78
2023/03/23 05:32:50;;;;;;;2.97;2.00;;;;;;;12.74;65.40;97374.91;5012499;28;20226;-76
2023/03/23 05:35:20;;;;;;;2.63;1.83;;;;;;;12.72;65.64;97382.16;5014308;28;20205;-77
2023/03/23 05:37:46;;;;;;;2.30;2.10;;;;;;;12.76;66.02;97375.59;5014041;28;20717;-76
2023/03/23 05:40:13;;;;;;;6.53;2.20;;;;;;;12.74;66.03;97377.53;5013706;28;20229;-76
2023/03/23 05:42:41;;;;;;;3.23;2.10;;;;;;;12.75;66.13;97366.81;5013981;28;20725;-76
2023/03/23 05:45:10;;;;;;;3.07;2.00;;;;;;;12.79;65.66;97381.47;5013876;28;20210;-76
2023/03/23 05:47:37;;;;;;;1.63;1.50;;;;;;;12.85;65.22;97372.94;5014231;28;20623;-76
2023/03/23 05:50:05;;;;;;;2.10;1.17;;;;;;;12.93;64.71;97369.59;5013758;28;20589;-77
2023/03/23 05:52:35;;;;;;;1.60;1.47;;;;;;;13.02;65.41;97368.81;5013903;28;20236;-77
2023/03/23 05:55:03;;;;;;;2.80;1.30;;;;;;;13.12;64.25;97369.63;5014319;28;20217;-76
2023/03/23 05:57:29;;;;;;;6.07;1.50;;;;;;;13.24;63.56;97368.50;5013604;28;20636;-77
2023/03/23 05:59:57;;;;;;;3.00;1.60;;;;;;;13.30;63.37;97373.25;5013500;28;20216;-76
2023/03/23 06:02:24;;;;;;;3.37;1.37;;;;;;;13.40;63.07;97372.28;5013675;28;20318;-77
2023/03/23 06:04:57;;;;;;;2.60;1.20;;;;;;;13.43;63.20;97384.41;5013909;28;20582;-77
2023/03/23 06:07:24;;;;;;;1.63;1.50;;;;;;;13.46;63.23;97386.81;5013760;28;20224;-77
2023/03/23 06:09:52;;;;;;;3.63;1.80;;;;;;;13.44;63.63;97399.41;5013238;28;20305;-77
2023/03/23 06:12:19;;;;;;;1.40;1.30;;;;;;;13.50;63.73;97396.19;5013784;28;20243;-77
2023/03/23 06:14:46;;;;;;;1.47;1.37;;;;;;;13.52;63.30;97402.16;5013829;28;20208;-77
2023/03/23 06:17:13;;;;;;;1.80;1.47;;;;;;;13.52;63.30;97410.13;5013397;28;20219;-77
2023/03/23 06:19:39;;;;;;;1.53;1.30;;;;;;;13.52;63.74;97415.44;5012960;28;20248;-77
2023/03/23 06:22:06;;;;;;;1.60;1.50;;;;;;;13.51;64.36;97419.09;5013290;28;20227;-77
2023/03/23 06:24:34;;;;;;;2.27;1.50;;;;;;;13.46;65.26;97421.31;5013254;28;20214;-77
2023/03/23 06:27:02;;;;;;;2.87;1.50;;;;;;;13.49;65.17;97426.31;5013465;28;20241;-77
2023/03/23 06:29:29;;;;;;;2.00;1.80;;;;;;;13.46;64.55;97429.28;5012894;28;20209;-77
2023/03/23 06:31:58;;;;;;;1.67;1.30;;;;;;;13.46;63.44;97416.81;5025843;28;20333;-77
2023/03/23 06:34:25;;;;;;;2.70;1.47;;;;;;;13.49;63.08;97426.31;5032775;28;20245;-78
2023/03/23 06:36:52;;;;;;;2.43;1.30;;;;;;;13.52;63.49;97420.75;5032795;28;20214;-79
2023/03/23 06:39:18;;;;;;;2.43;1.40;;;;;;;13.53;63.25;97422.41;5032239;28;20230;-80
2023/03/23 06:41:45;;;;;;;2.17;1.40;;;;;;;13.55;63.84;97425.75;5032742;28;20230;-76
2023/03/23 06:44:13;;;;;;;1.67;1.40;;;;;;;13.57;64.43;97432.63;5032679;28;20217;-77
2023/03/23 06:46:41;;;;;;;2.20;1.50;;;;;;;13.53;65.25;97448.97;5032379;28;20730;-76
2023/03/23 06:49:08;;;;;;;1.37;1.27;;;;;;;13.53;65.83;97446.31;5032626;28;20210;-76
2023/03/23 06:51:35;;;;;;;2.60;1.70;;;;;;;13.57;65.61;97450.38;5032370;28;20222;-76
2023/03/23 06:54:01;;;;;;;1.87;1.40;;;;;;;13.66;63.84;97438.91;5032660;28;20210;-76
2023/03/23 06:56:28;;;;;;;1.90;1.40;;;;;;;13.81;63.72;97442.81;5032519;28;20298;-76
2023/03/23 06:58:54;;;;;;;1.43;1.30;;;;;;;13.98;63.83;97439.38;5031873;28;20231;-79
2023/03/23 07:01:22;;;;;;;1.33;1.23;;;;;;;14.10;63.80;97448.88;5030800;28;20242;-76
2023/03/23 07:03:49;;;;;;;1.90;1.40;;;;;;;14.19;63.85;97442.75;5030510;28;20825;-75
2023/03/23 07:06:16;;;;;;;1.60;1.37;;;;;;;14.23;63.33;97444.13;5031100;28;20225;-75
2023/03/23 07:08:42;;;;;;;2.13;1.43;;;;;;;14.24;63.57;97456.44;5031390;28;20201;-76
2023/03/23 07:11:10;;;;;;;2.60;1.80;;;;;;;14.23;63.86;97455.59;5031267;28;20837;-77
2023/03/23 07:13:37;;;;;;;2.97;1.70;;;;;;;14.21;63.86;97456.72;5032022;28;20453;-76
2023/03/23 07:16:06;;;;;;;4.17;1.30;;;;;;;14.22;64.24;97453.06;5032386;28;20214;-76
2023/03/23 07:18:34;;;;;;;2.30;1.70;;;;;;;14.18;63.35;97451.66;5032060;28;20236;-76
2023/03/23 07:21:01;;;;;;;2.77;1.63;;;;;;;14.14;62.63;97460.91;5032075;28;20240;-76
2023/03/23 07:23:29;;;;;;;2.67;1.73;;;;;;;14.14;62.13;97458.25;5031786;28;20215;-76
2023/03/23 07:25:56;;;;;;;3.80;1.90;;;;;;;14.16;61.63;97453.59;5031597;28;20824;-76
2023/03/23 07:28:23;;;;;;;2.53;1.73;;;;;;;14.16;61.86;97461.56;5031772;28;20214;-77
2023/03/23 07:30:50;;;;;;;1.90;1.57;;;;;;;14.16;61.35;97466.91;5031352;28;20238;-77
2023/03/23 07:33:17;;;;;;;2.43;1.50;;;;;;;14.20;61.16;97465.66;5031628;28;20212;-77
2023/03/23 07:35:45;;;;;;;3.67;1.50;;;;;;;14.19;61.57;97479.94;5031667;28;20726;-77
2023/03/23 07:38:12;;;;;;;3.00;1.83;;;;;;;14.19;62.37;97495.88;5031518;28;20212;-76
2023/03/23 07:40:38;;;;;;;3.63;2.03;;;;;;;14.17;62.42;97498.66;5031299;28;20741;-77
2023/03/23 07:43:05;;;;;;;2.23;1.80;;;;;;;14.21;62.58;97509.88;5030599;28;20204;-77
2023/03/23 07:45:32;;;;;;;3.90;1.80;;;;;;;14.21;62.08;97493.91;5029235;28;20208;-77
2023/03/23 07:47:59;;;;;;;4.37;1.60;;;;;;;14.29;61.90;97504.69;5031527;28;20208;-77
2023/03/23 07:50:27;;;;;;;1.57;1.40;;;;;;;14.37;61.58;97497.63;5030510;28;20211;-77
2023/03/23 07:52:57;;;;;;;2.83;1.70;;;;;;;14.50;60.63;97490.22;5029326;28;20576;-77
2023/03/23 07:55:24;;;;;;;2.53;1.50;;;;;;;14.70;60.26;97486.47;5031679;28;20837;-78
2023/03/23 07:57:53;;;;;;;2.53;1.70;;;;;;;14.93;59.67;97481.59;5031134;28;20216;-77
2023/03/23 08:00:23;;;;;;;2.93;1.67;;;;;;;15.13;59.64;97485.81;5030889;28;20698;-77
2023/03/23 08:02:51;;;;;;;2.03;1.57;;;;;;;15.24;59.55;97478.47;5031289;28;20637;-77
2023/03/23 08:05:18;;;;;;;2.50;1.60;;;;;;;15.23;59.56;97486.59;5031307;28;20216;-77
2023/03/23 08:07:45;;;;;;;2.30;1.47;;;;;;;15.19;59.61;97493.19;5031154;28;20213;-77
2023/03/23 08:10:14;;;;;;;4.60;1.60;;;;;;;15.18;60.36;97508.34;5030870;28;20208;-77
2023/03/23 08:12:42;;;;;;;2.80;1.63;;;;;;;15.17;60.43;97514.66;5031109;28;20368;-77
2023/03/23 08:15:12;;;;;;;2.27;1.70;;;;;;;15.15;60.65;97515.81;5030950;28;20208;-77
2023/03/23 08:17:40;;;;;;;2.57;1.80;;;;;;;15.15;59.72;97507.81;5031146;28;20758;-77
2023/03/23 08:20:12;;;;;;;3.23;1.70;;;;;;;15.18;60.10;97510.16;5030622;28;20754;-76
2023/03/23 08:22:39;;;;;;;3.40;2.17;;;;;;;15.23;59.77;97508.75;5030978;28;20208;-76
2023/03/23 08:25:08;;;;;;;2.70;1.77;;;;;;;15.25;59.24;97506.75;5030874;28;20212;-76
2023/03/23 08:27:37;;;;;;;4.40;1.70;;;;;;;15.29;59.56;97515.28;5029638;28;20224;-76
2023/03/23 08:30:06;;;;;;;3.03;1.97;;;;;;;15.32;59.87;97521.19;5029166;28;20235;-75
2023/03/23 08:32:33;;;;;;;4.03;1.90;;;;;;;15.27;60.52;97528.75;5029908;28;20508;-75
2023/03/23 08:34:59;;;;;;;1.93;1.70;;;;;;;15.31;60.28;97529.28;5030070;28;20216;-76
2023/03/23 08:37:26;;;;;;;2.57;1.80;;;;;;;15.35;60.90;97525.38;5029359;28;20223;-76
2023/03/23 08:39:53;;;;;;;2.77;1.80;;;;;;;15.33;61.23;97527.34;5016147;28;20221;-76
2023/03/23 08:42:19;;;;;;;2.00;1.53;;;;;;;15.36;61.37;97533.22;5010181;28;20225;-75
2023/03/23 08:44:47;;;;;;;1.67;1.57;;;;;;;15.28;62.13;97530.41;5010363;28;20689;-76
2023/03/23 08:47:14;;;;;;;3.53;1.83;;;;;;;15.31;61.61;97539.91;5010371;28;20308;-76
2023/03/23 08:49:42;;;;;;;2.20;1.70;;;;;;;15.29;61.49;97541.91;5010112;28;20212;-76
2023/03/23 08:52:09;;;;;;;2.57;1.47;;;;;;;15.37;61.86;97545.53;5010171;28;20236;-76
2023/03/23 08:54:36;;;;;;;2.87;1.93;;;;;;;15.36;62.19;97554.50;5009881;28;20208;-76
2023/03/23 08:57:03;;;;;;;2.60;1.77;;;;;;;15.42;62.59;97559.25;5008353;28;20209;-76
2023/03/23 08:59:30;;;;;;;2.33;1.33;;;;;;;15.45;62.46;97561.59;5013904;28;20244;-75
2023/03/23 09:01:58;;;;;;;2.80;1.73;;;;;;;15.45;62.79;97568.75;5013821;28;20260;-75
2023/03/23 09:04:24;;;;;;;2.00;1.60;;;;;;;15.35;63.04;97573.28;5014017;28;20259;-76
2023/03/23 09:06:51;;;;;;;4.90;2.00;;;;;;;15.25;62.92;97561.81;5014095;28;20216;-75
2023/03/23 09:09:18;;;;;;;2.27;1.50;;;;;;;15.26;64.11;97563.47;5013045;28;20296;-75
2023/03/23 09:11:45;;;;;;;2.13;1.47;;;;;;;15.23;63.90;97567.31;5013533;28;20229;-76
2023/03/23 09:14:12;;;;;;;2.27;1.70;;;;;;;15.18;64.46;97582.03;5013897;28;20245;-75
2023/03/23 09:16:39;;;;;;;6.60;1.80;;;;;;;15.21;65.37;97576.44;5014167;28;20260;-80
2023/03/23 09:19:09;;;;;;;2.17;1.70;;;;;;;15.15;64.48;97583.16;5013664;28;20228;-80
2023/03/23 09:21:35;;;;;;;2.00;1.80;;;;;;;15.18;65.17;97590.03;5013475;28;20290;-80
2023/03/23 09:24:02;;;;;;;2.70;1.60;;;;;;;15.20;64.69;97583.56;5013484;28;20219;-78
2023/03/23 09:26:29;;;;;;;1.90;1.70;;;;;;;15.23;64.52;97579.78;5014786;28;20208;-78
2023/03/23 09:28:57;;;;;;;2.07;1.70;;;;;;;15.34;64.44;97579.63;5014440;28;20270;-78
2023/03/23 09:31:26;;;;;;;1.77;1.50;;;;;;;15.40;64.50;97590.50;5014124;28;20718;-78
2023/03/23 09:33:52;;;;;;;2.00;1.73;;;;;;;15.49;64.33;97599.41;5014593;28;20627;-79
2023/03/23 09:36:21;;;;;;;2.83;1.77;;;;;;;15.55;64.42;97606.81;5015293;28;20209;-79
2023/03/23 09:38:48;;;;;;;1.70;1.60;;;;;;;15.60;63.99;97599.22;5017388;28;20464;-78
2023/03/23 09:41:34;;;;;;;2.50;1.93;;;;;;;15.70;63.40;97594.66;5014142;28;20237;-79
2023/03/23 09:44:06;;;;;;;2.17;1.43;;;;;;;15.79;62.33;97583.09;5014390;28;20209;-79
2023/03/23 09:46:51;;;;;;;2.27;1.70;;;;;;;15.83;63.31;97595.97;5014035;28;20212;-79
2023/03/23 09:49:22;;;;;;;2.43;1.73;;;;;;;15.86;61.97;97589.50;5013897;28;20212;-79
2023/03/23 09:51:54;;;;;;;2.53;1.80;;;;;;;15.79;62.54;97593.75;5013987;28;20243;-76
2023/03/23 09:54:24;;;;;;;1.97;1.70;;;;;;;15.82;63.37;97599.63;5014189;28;20213;-76
2023/03/23 09:56:51;;;;;;;2.57;1.70;;;;;;;15.84;63.30;97596.81;5014155;28;20215;-76
2023/03/23 09:59:24;;;;;;;2.45;1.80;;;;;;;15.91;62.68;97592.53;5012887;28;20458;-80
2023/03/23 10:01:53;;;;;;;1.70;1.50;;;;;;;15.87;63.02;97600.00;5013792;28;20229;-80
2023/03/23 10:04:32;;;;;;;2.20;1.37;;;;;;;15.96;62.86;97606.25;5013913;28;20267;-79
2023/03/23 10:07:10;;;;;;;3.23;1.50;;;;;;;15.94;62.56;97608.25;5013906;28;20216;-77
2023/03/23 10:09:37;;;;;;;2.03;1.70;;;;;;;15.88;62.52;97608.84;5012856;28;20573;-76
2023/03/23 10:12:14;;;;;;;1.97;1.50;;;;;;;15.86;62.83;97606.34;5013187;28;20240;-79
2023/03/23 10:15:13;;;;;;;2.43;1.50;;;;;;;15.82;63.35;97626.25;5013744;28;20313;-76
2023/03/23 10:17:47;;;;;;;2.70;1.60;;;;;;;15.93;64.40;97618.06;5013149;28;20288;-76
2023/03/23 10:20:28;;;;;;;3.13;1.50;;;;;;;16.17;63.63;97616.47;5012959;28;20231;-77
2023/03/23 10:23:03;;;;;;;2.17;1.63;;;;;;;16.29;63.04;97625.91;5013645;28;20213;-76
2023/03/23 10:25:32;;;;;;;2.60;2.03;;;;;;;16.35;63.11;97629.78;5013455;28;20584;-76
2023/03/23 10:28:05;;;;;;;2.37;1.70;;;;;;;16.43;62.45;97622.72;5013240;28;20560;-76
2023/03/23 10:30:37;;;;;;;3.97;1.63;;;;;;;16.34;62.64;97630.78;5012702;28;20237;-76
2023/03/23 10:33:11;;;;;;;1.47;1.37;;;;;;;16.38;63.06;97635.69;5013358;28;20216;-78
2023/03/23 10:35:44;;;;;;;2.37;1.60;;;;;;;16.49;62.92;97626.59;5013490;28;20231;-77
2023/03/23 10:38:17;;;;;;;1.60;1.47;;;;;;;16.69;62.75;97628.94;5013029;28;20202;-77
2023/03/23 10:40:50;;;;;;;4.63;1.70;;;;;;;16.80;62.30;97623.34;5012932;28;20237;-77
2023/03/23 10:43:18;;;;;;;1.83;1.50;;;;;;;16.82;60.82;97609.84;5013432;28;20252;-78
2023/03/23 10:45:46;;;;;;;2.63;1.33;;;;;;;16.82;61.33;97624.00;5013081;28;20683;-79
2023/03/23 10:48:17;;;;;;;2.80;1.70;;;;;;;16.68;61.50;97623.75;5012878;28;20213;-79
2023/03/23 10:50:47;;;;;;;2.27;1.30;;;;;;;16.49;62.41;97614.09;5012755;28;20283;-77
2023/03/23 10:53:17;;;;;;;3.70;1.50;;;;;;;16.33;63.32;97629.94;5013000;28;20738;-75
2023/03/23 10:55:46;;;;;;;2.80;1.33;;;;;;;16.18;63.26;97623.47;5012891;28;20212;-78
2023/03/23 10:58:23;;;;;;;1.33;1.10;;;;;;;16.19;63.73;97630.47;5012767;28;20213;-79
2023/03/23 11:00:50;;;;;;;2.05;1.45;;;;;;;16.36;64.32;97634.13;5011042;28;20458;-77
2023/03/23 11:03:36;;;;;;;1.75;1.48;;;;;;;16.57;63.15;97614.16;5012446;28;20435;-79
2023/03/23 11:06:04;;;;;;;1.33;1.13;;;;;;;16.69;62.88;97618.25;5012974;28;20244;-76
2023/03/23 11:08:38;;;;;;;2.60;1.20;;;;;;;16.63;63.08;97621.53;5012541;28;20210;-76
2023/03/23 11:11:11;;;;;;;2.63;1.40;;;;;;;16.68;62.78;97616.59;5012095;28;20239;-75
2023/03/23 11:13:42;;;;;;;1.85;1.48;;;;;;;16.70;63.86;97619.91;5011856;28;20431;-74
2023/03/23 11:16:10;;;;;;;1.70;1.30;;;;;;;16.87;63.73;97623.53;5012225;28;20893;-76
2023/03/23 11:18:40;;;;;;;1.88;1.45;;;;;;;16.95;63.11;97623.59;5011478;28;20521;-76
2023/03/23 11:21:10;;;;;;;1.87;1.40;;;;;;;16.78;63.11;97617.34;5011166;28;20252;-75
2023/03/23 11:23:41;;;;;;;2.17;1.50;;;;;;;16.70;63.55;97609.25;5012083;28;20684;-75
2023/03/23 11:26:15;;;;;;;1.50;1.40;;;;;;;16.71;63.21;97610.91;5012207;28;20652;-75
2023/03/23 11:28:46;;;;;;;1.23;1.13;;;;;;;16.62;63.61;97617.22;5012315;28;20243;-76
2023/03/23 11:31:12;;;;;;;1.83;1.33;;;;;;;16.60;63.61;97613.00;5036141;22;20279;-77
2023/03/23 11:33:51;;;;;;;4.40;1.43;;;;;;;16.61;64.17;97615.53;5071446;28;20207;-76
2023/03/23 11:36:19;;;;;;;1.70;1.20;;;;;;;16.62;65.07;97621.69;5071782;28;20253;-76
2023/03/23 11:38:47;;;;;;;2.40;1.43;;;;;;;16.69;63.95;97602.25;5071576;28;20215;-76
2023/03/23 11:41:20;;;;;;;2.10;1.40;;;;;;;16.91;64.26;97608.88;5071186;28;20231;-76
2023/03/23 11:43:48;;;;;;;2.17;1.30;;;;;;;17.02;64.04;97601.44;5071571;28;20303;-76
2023/03/23 11:46:23;;;;;;;1.60;1.50;;;;;;;17.07;63.31;97600.97;5071533;28;20273;-76
2023/03/23 11:48:58;;;;;;;1.63;1.53;;;;;;;17.15;63.43;97609.88;5071223;28;20203;-76